createdAt,value
2022-10-19T00:01:32.669Z,101014.28
2022-10-19T00:04:03.513Z,100998.53
2022-10-19T00:06:38.019Z,101000.50
2022-10-19T00:09:09.067Z,100984.00
2022-10-19T00:11:39.679Z,100993.19
2022-10-19T00:14:09.488Z,100976.59
2022-10-19T00:16:39.731Z,100992.44
2022-10-19T00:19:10.809Z,100988.13
2022-10-19T00:21:41.043Z,100988.34
2022-10-19T00:24:10.459Z,100975.09
2022-10-19T00:26:39.332Z,100978.66
2022-10-19T00:29:08.074Z,100979.50
2022-10-19T00:31:36.801Z,100983.06
2022-10-19T00:34:05.510Z,100971.19
2022-10-19T00:36:36.789Z,100973.41
2022-10-19T00:39:09.570Z,100968.25
2022-10-19T00:41:38.878Z,100961.03
2022-10-19T00:44:09.760Z,100961.13
2022-10-19T00:46:40.328Z,100956.06
2022-10-19T00:49:11.198Z,100945.56
2022-10-19T00:51:44.911Z,100935.69
2022-10-19T00:54:15.908Z,100954.09
2022-10-19T00:56:46.708Z,100950.72
2022-10-19T00:59:18.069Z,100941.53
2022-10-19T01:01:47.700Z,100940.03
2022-10-19T01:04:16.879Z,100949.03
2022-10-19T01:06:45.465Z,100934.03
2022-10-19T01:09:15.550Z,100910.47
2022-10-19T01:11:55.198Z,100896.63
2022-10-19T01:14:35.810Z,100920.47
2022-10-19T01:17:14.109Z,100933.91
2022-10-19T01:20:11.579Z,100928.84
2022-10-19T01:22:57.909Z,100930.84
2022-10-19T01:25:40.459Z,100919.22
2022-10-19T01:28:26.081Z,100926.44
2022-10-19T01:31:03.359Z,100922.97
2022-10-19T01:33:45.505Z,100909.94
2022-10-19T01:36:23.169Z,100910.78
2022-10-19T01:38:58.410Z,100900.94
2022-10-19T01:41:31.539Z,100894.28
2022-10-19T01:44:05.229Z,100896.50
2022-10-19T01:46:39.719Z,100898.41
2022-10-19T01:49:13.529Z,100889.53
2022-10-19T01:51:47.422Z,100896.72
2022-10-19T01:54:19.478Z,100886.22
2022-10-19T01:56:50.803Z,100879.47
2022-10-19T01:59:22.530Z,100875.38
2022-10-19T02:01:54.068Z,100890.81
2022-10-19T02:04:25.309Z,100872.56
2022-10-19T02:06:55.506Z,100876.09
2022-10-19T02:09:24.144Z,100873.47
2022-10-19T02:11:57.255Z,100889.59
2022-10-19T02:14:30.203Z,100882.88
2022-10-19T02:17:04.534Z,100876.47
2022-10-19T02:19:33.174Z,100857.44
2022-10-19T02:22:02.045Z,100853.22
2022-10-19T02:24:30.569Z,100853.22
2022-10-19T02:27:00.783Z,100858.09
2022-10-19T02:29:29.714Z,100842.84
2022-10-19T02:31:58.354Z,100840.31
2022-10-19T02:34:28.939Z,100836.53
2022-10-19T02:36:58.094Z,100824.56
2022-10-19T02:39:26.987Z,100826.16
2022-10-19T02:42:02.004Z,100824.66
2022-10-19T02:44:35.503Z,100798.31
2022-10-19T02:47:09.144Z,100806.19
2022-10-19T02:49:39.544Z,100791.38
2022-10-19T02:52:09.418Z,100817.31
2022-10-19T02:54:40.704Z,100819.09
2022-10-19T02:57:17.784Z,100805.97
2022-10-19T02:59:46.595Z,100781.59
2022-10-19T03:02:15.924Z,100773.22
2022-10-19T03:07:21.663Z,100785.38
2022-10-19T03:09:50.583Z,100774.03
2022-10-19T03:12:19.745Z,100749.59
2022-10-19T03:14:48.225Z,100752.00
2022-10-19T03:17:16.805Z,100744.97
2022-10-19T03:19:47.697Z,100736.25
2022-10-19T03:22:16.304Z,100746.00
2022-10-19T03:24:44.903Z,100743.59
2022-10-19T03:27:13.444Z,100763.63
2022-10-19T03:29:42.004Z,100750.81
2022-10-19T03:32:10.513Z,100764.59
2022-10-19T03:34:39.737Z,100738.44
2022-10-19T03:37:10.774Z,100731.50
2022-10-19T03:39:39.853Z,100740.97
2022-10-19T03:42:09.134Z,100730.56
2022-10-19T03:44:37.664Z,100734.75
2022-10-19T03:47:06.184Z,100750.50
2022-10-19T03:49:36.847Z,100748.00
2022-10-19T03:52:10.407Z,100752.22
2022-10-19T03:54:38.920Z,100760.72
2022-10-19T03:57:07.394Z,100776.34
2022-10-19T03:59:35.893Z,100767.63
2022-10-19T04:02:04.749Z,100758.41
2022-10-19T04:04:33.276Z,100762.63
2022-10-19T04:07:02.095Z,100770.91
2022-10-19T04:09:32.004Z,100779.19
2022-10-19T04:12:00.444Z,100774.91
2022-10-19T04:14:33.212Z,100775.75
2022-10-19T04:17:07.965Z,100785.41
2022-10-19T04:19:36.514Z,100787.09
2022-10-19T04:22:05.036Z,100787.94
2022-10-19T04:24:34.973Z,100767.88
2022-10-19T04:27:03.816Z,100748.78
2022-10-19T04:29:32.334Z,100738.47
2022-10-19T04:32:00.896Z,100739.41
2022-10-19T04:34:29.524Z,100736.06
2022-10-19T04:36:59.784Z,100737.59
2022-10-19T04:39:28.326Z,100746.44
2022-10-19T04:41:58.307Z,100755.34
2022-10-19T04:44:26.755Z,100754.44
2022-10-19T04:46:55.245Z,100747.38
2022-10-19T04:49:23.805Z,100750.00
2022-10-19T04:51:52.234Z,100750.84
2022-10-19T04:54:20.824Z,100739.41
2022-10-19T04:56:49.325Z,100742.03
2022-10-19T04:59:19.229Z,100746.34
2022-10-19T05:01:47.744Z,100746.97
2022-10-19T05:04:16.284Z,100747.91
2022-10-19T05:06:44.751Z,100734.25
2022-10-19T05:09:13.244Z,100734.34
2022-10-19T05:11:41.804Z,100727.63
2022-10-19T05:14:10.284Z,100749.06
2022-10-19T05:16:40.235Z,100747.38
2022-10-19T05:19:08.721Z,100742.97
2022-10-19T05:21:37.204Z,100748.34
2022-10-19T05:24:05.905Z,100744.66
2022-10-19T05:26:34.404Z,100734.16
2022-10-19T05:29:04.622Z,100738.03
2022-10-19T05:31:35.265Z,100728.59
2022-10-19T05:34:05.484Z,100725.00
2022-10-19T05:36:37.088Z,100727.63
2022-10-19T05:39:07.985Z,100714.72
2022-10-19T05:41:39.465Z,100702.34
2022-10-19T05:44:08.295Z,100705.16
2022-10-19T05:46:36.790Z,100714.41
2022-10-19T05:49:06.905Z,100716.28
2022-10-19T05:51:36.846Z,100718.38
2022-10-19T05:54:06.045Z,100713.25
2022-10-19T05:56:34.785Z,100717.53
2022-10-19T05:59:06.395Z,100718.09
2022-10-19T06:01:40.874Z,100714.72
2022-10-19T06:04:14.356Z,100715.66
2022-10-19T06:06:44.894Z,100726.88
2022-10-19T06:09:13.905Z,100718.50
2022-10-19T06:11:43.647Z,100715.09
2022-10-19T06:14:15.784Z,100721.97
2022-10-19T06:16:46.287Z,100720.16
2022-10-19T06:19:16.654Z,100726.38
2022-10-19T06:21:46.334Z,100726.59
2022-10-19T06:24:14.980Z,100724.81
2022-10-19T06:26:43.474Z,100732.28
2022-10-19T06:29:12.284Z,100728.38
2022-10-19T06:31:40.746Z,100715.75
2022-10-19T06:34:09.281Z,100717.47
2022-10-19T06:36:39.605Z,100713.41
2022-10-19T06:39:08.105Z,100720.53
2022-10-19T06:41:36.615Z,100719.41
2022-10-19T06:44:05.214Z,100713.97
2022-10-19T06:46:34.173Z,100713.75
2022-10-19T06:49:03.804Z,100705.78
2022-10-19T06:51:34.273Z,100699.28
2022-10-19T06:54:04.956Z,100694.03
2022-10-19T06:56:33.534Z,100700.97
2022-10-19T06:59:02.084Z,100699.28
2022-10-19T07:01:44.556Z,100706.47
2022-10-19T07:04:13.344Z,100698.81
2022-10-19T07:06:41.966Z,100712.66
2022-10-19T07:09:11.985Z,100710.78
2022-10-19T07:11:45.731Z,100710.88
2022-10-19T07:14:14.671Z,100713.31
2022-10-19T07:16:43.216Z,100704.91
2022-10-19T07:19:11.944Z,100717.53
2022-10-19T07:21:41.905Z,100709.78
2022-10-19T07:24:11.974Z,100721.16
2022-10-19T07:26:40.444Z,100710.63
2022-10-19T07:29:08.985Z,100703.75
2022-10-19T07:31:37.565Z,100706.47
2022-10-19T07:34:07.194Z,100704.91
2022-10-19T07:36:37.254Z,100690.84
2022-10-19T07:39:07.539Z,100688.00
2022-10-19T07:41:37.547Z,100681.09
2022-10-19T07:44:06.959Z,100662.38
2022-10-19T07:46:37.455Z,100657.34
2022-10-19T07:49:08.046Z,100634.56
2022-10-19T07:51:36.984Z,100611.91
2022-10-19T07:54:06.415Z,100608.31
2022-10-19T07:56:35.055Z,100582.50
2022-10-19T07:59:06.055Z,100552.28
2022-10-19T08:01:37.314Z,100543.25
2022-10-19T08:06:54.616Z,100518.81
2022-10-19T08:09:51.116Z,100530.13
2022-10-19T08:12:15.118Z,100542.50
2022-10-19T08:14:45.644Z,100535.59
2022-10-19T08:17:17.828Z,100533.94
2022-10-19T08:19:47.267Z,100528.56
2022-10-19T08:22:18.455Z,100558.38
2022-10-19T08:24:46.934Z,100563.09
2022-10-19T08:27:16.214Z,100556.06
2022-10-19T08:29:46.255Z,100545.25
2022-10-19T08:32:14.683Z,100550.09
2022-10-19T08:34:43.604Z,100565.91
2022-10-19T08:37:25.967Z,100580.00
2022-10-19T08:39:54.937Z,100583.38
2022-10-19T08:42:30.065Z,100588.50
2022-10-19T08:45:25.404Z,100582.69
2022-10-19T08:48:18.676Z,100588.06
2022-10-19T08:50:49.075Z,100586.91
2022-10-19T08:53:23.536Z,100600.78
2022-10-19T08:56:06.144Z,100593.94
2022-10-19T08:58:49.294Z,100590.16
2022-10-19T09:01:35.356Z,100592.06
2022-10-19T09:04:11.705Z,100575.78
2022-10-19T09:06:53.624Z,100571.69
2022-10-19T09:09:22.705Z,100560.78
2022-10-19T09:11:56.464Z,100539.88
2022-10-19T09:14:31.627Z,100516.88
2022-10-19T09:17:07.789Z,100498.25
2022-10-19T09:19:36.365Z,100521.00
2022-10-19T09:22:09.274Z,100531.31
2022-10-19T09:24:44.475Z,100516.81
2022-10-19T09:27:21.545Z,100507.97
2022-10-19T09:29:52.675Z,100497.19
2022-10-19T09:32:28.167Z,100490.78
2022-10-19T09:35:01.474Z,100490.78
2022-10-19T09:40:04.854Z,100484.78
2022-10-19T09:42:37.096Z,100484.56
2022-10-19T09:45:17.924Z,100495.47
2022-10-19T09:47:50.209Z,100513.56
2022-10-19T09:50:20.984Z,100521.22
2022-10-19T09:52:50.724Z,100521.94
2022-10-19T09:55:31.101Z,100534.44
2022-10-19T09:58:04.744Z,100544.94
2022-10-19T10:00:39.583Z,100551.97
2022-10-19T10:03:10.204Z,100558.81
2022-10-19T10:05:41.035Z,100578.97
2022-10-19T10:08:18.344Z,100588.72
2022-10-19T10:10:49.565Z,100596.50
2022-10-19T10:13:21.507Z,100601.44
2022-10-19T10:15:52.399Z,100620.63
2022-10-19T10:18:24.664Z,100630.31
2022-10-19T10:21:02.587Z,100632.84
2022-10-19T10:23:36.531Z,100636.31
2022-10-19T10:26:07.334Z,100636.31
2022-10-19T10:28:47.457Z,100626.00
2022-10-19T10:31:16.789Z,100623.19
2022-10-19T10:33:55.893Z,100619.94
2022-10-19T10:36:27.074Z,100621.25
2022-10-19T10:39:03.572Z,100610.66
2022-10-19T10:41:37.844Z,100600.38
2022-10-19T10:44:10.884Z,100593.88
2022-10-19T10:46:47.834Z,100587.66
2022-10-19T10:49:24.564Z,100581.47
2022-10-19T10:51:56.434Z,100574.41
2022-10-19T10:54:26.654Z,100565.72
2022-10-19T10:57:06.823Z,100562.16
2022-10-19T10:59:43.096Z,100553.31
2022-10-19T11:02:23.532Z,100550.56
2022-10-19T11:04:58.414Z,100526.75
2022-10-19T11:07:29.757Z,100533.16
2022-10-19T11:10:00.724Z,100527.91
2022-10-19T11:12:40.485Z,100523.88
2022-10-19T11:15:18.387Z,100523.88
2022-10-19T11:18:01.770Z,100504.69
2022-10-19T11:20:33.998Z,100486.03
2022-10-19T11:23:13.708Z,100485.81
2022-10-19T11:25:55.839Z,100508.34
2022-10-19T11:28:39.604Z,100495.34
2022-10-19T11:31:16.819Z,100488.53
2022-10-19T11:34:00.472Z,100490.41
2022-10-19T11:36:47.849Z,100473.72
2022-10-19T11:39:43.088Z,100476.00
2022-10-19T11:42:20.179Z,100471.72
2022-10-19T11:45:04.879Z,100464.81
2022-10-19T11:47:51.600Z,100456.59
2022-10-19T11:50:32.589Z,100436.31
2022-10-19T11:53:11.300Z,100422.22
2022-10-19T11:55:47.669Z,100419.25
2022-10-19T11:58:51.539Z,100414.22
2022-10-19T12:01:35.281Z,100411.84
2022-10-19T12:04:31.461Z,100405.19
2022-10-19T12:07:16.370Z,100398.03
2022-10-19T12:09:55.349Z,100389.22
2022-10-19T12:12:31.166Z,100389.06
2022-10-19T12:15:21.569Z,100387.75
2022-10-19T12:17:53.472Z,100380.44
2022-10-19T12:20:27.879Z,100374.13
2022-10-19T12:22:58.248Z,100353.50
2022-10-19T12:25:29.289Z,100334.06
2022-10-19T12:27:59.709Z,100327.63
2022-10-19T12:30:28.469Z,100310.19
2022-10-19T12:33:16.092Z,100307.66
2022-10-19T12:36:23.762Z,100305.41
2022-10-19T12:39:02.249Z,100296.56
2022-10-19T12:41:40.309Z,100283.34
2022-10-19T12:44:22.451Z,100287.25
2022-10-19T12:46:57.593Z,100254.81
2022-10-19T12:49:49.530Z,100252.88
2022-10-19T12:52:36.103Z,100252.16
2022-10-19T12:55:27.040Z,100250.34
2022-10-19T12:58:03.029Z,100264.94
2022-10-19T13:00:34.355Z,100272.84
2022-10-19T13:03:07.577Z,100254.69
2022-10-19T13:05:37.471Z,100254.78
2022-10-19T13:08:10.701Z,100243.44
2022-10-19T13:10:42.410Z,100249.44
2022-10-19T13:13:43.219Z,100233.03
2022-10-19T13:16:45.119Z,100229.94
2022-10-19T13:19:22.619Z,100230.44
2022-10-19T13:21:54.460Z,100230.94
2022-10-19T13:24:35.860Z,100217.91
2022-10-19T13:27:27.339Z,100208.63
2022-10-19T13:29:56.469Z,100191.06
2022-10-19T13:32:39.550Z,100182.69
2022-10-19T13:35:33.283Z,100178.63
2022-10-19T13:38:29.893Z,100166.47
2022-10-19T13:41:03.169Z,100171.34
2022-10-19T13:43:35.239Z,100164.69
2022-10-19T13:46:16.253Z,100168.97
2022-10-19T13:49:14.449Z,100181.75
2022-10-19T13:51:55.029Z,100177.22
2022-10-19T13:54:35.689Z,100169.09
2022-10-19T13:57:19.399Z,100164.78
2022-10-19T14:00:20.049Z,100147.25
2022-10-19T14:03:31.370Z,100132.81
2022-10-19T14:06:11.770Z,100132.34
2022-10-19T14:09:06.118Z,100118.63
2022-10-19T14:11:38.050Z,100096.41
2022-10-19T14:14:15.944Z,100070.50
2022-10-19T14:16:58.299Z,100049.88
2022-10-19T14:19:31.950Z,100038.50
2022-10-19T14:22:20.769Z,100024.19
2022-10-19T14:24:50.739Z,100031.72
2022-10-19T14:27:23.471Z,100009.63
2022-10-19T14:29:54.640Z,100008.44
2022-10-19T14:32:26.833Z,100010.38
2022-10-19T14:34:58.956Z,99999.63
2022-10-19T14:37:28.908Z,99995.09
2022-10-19T14:40:05.270Z,99999.75
2022-10-19T14:42:45.759Z,99997.25
2022-10-19T14:45:17.824Z,99988.53
2022-10-19T14:48:01.586Z,99999.41
2022-10-19T14:50:41.596Z,100004.16
2022-10-19T14:53:30.584Z,99995.69
2022-10-19T14:56:03.959Z,100007.75
2022-10-19T14:58:38.729Z,100003.47
2022-10-19T15:01:08.038Z,99998.47
2022-10-19T15:03:39.123Z,99984.75
2022-10-19T15:06:20.481Z,99991.66
2022-10-19T15:11:30.399Z,99992.97
2022-10-19T15:14:05.299Z,100013.25
2022-10-19T15:16:42.570Z,100007.16
2022-10-19T15:19:18.830Z,100009.41
2022-10-19T15:21:49.879Z,99992.25
2022-10-19T15:24:27.545Z,99995.84
2022-10-19T15:27:09.048Z,99984.63
2022-10-19T15:29:39.130Z,99990.69
2022-10-19T15:32:22.369Z,99970.06
2022-10-19T15:34:51.349Z,99972.31
2022-10-19T15:37:22.912Z,99963.63
2022-10-19T15:39:57.849Z,99959.78
2022-10-19T15:42:39.890Z,99955.50
2022-10-19T15:45:31.609Z,99945.00
2022-10-19T15:48:31.179Z,99921.88
2022-10-19T15:50:59.707Z,99919.72
2022-10-19T15:53:28.515Z,99903.25
2022-10-19T15:55:57.135Z,99908.50
2022-10-19T15:58:27.224Z,99907.69
2022-10-19T16:00:56.172Z,99901.13
2022-10-19T16:03:24.769Z,99922.59
2022-10-19T16:05:54.555Z,99906.59
2022-10-19T16:08:23.046Z,99896.09
2022-10-19T16:10:53.550Z,99875.34
2022-10-19T16:13:22.029Z,99861.03
2022-10-19T16:16:01.341Z,99879.41
2022-10-19T16:18:39.399Z,99860.81
2022-10-19T16:21:08.109Z,99879.16
2022-10-19T16:23:41.814Z,99872.25
2022-10-19T16:26:11.020Z,99880.38
2022-10-19T16:28:39.500Z,99880.38
2022-10-19T16:31:09.518Z,99872.25
2022-10-19T16:33:38.354Z,99862.22
2022-10-19T16:36:08.349Z,99868.66
2022-10-19T16:38:37.259Z,99862.81
2022-10-19T16:41:08.011Z,99861.16
2022-10-19T16:43:37.339Z,99862.72
2022-10-19T16:46:06.309Z,99861.50
2022-10-19T16:48:37.129Z,99871.88
2022-10-19T16:51:35.669Z,99862.22
2022-10-19T16:54:05.817Z,99855.19
2022-10-19T16:56:35.689Z,99855.31
2022-10-19T16:59:06.169Z,99844.22
2022-10-19T17:01:36.715Z,99856.13
2022-10-19T17:04:06.955Z,99843.25
2022-10-19T17:06:35.850Z,99844.00
2022-10-19T17:11:53.590Z,99809.28
2022-10-19T17:14:22.180Z,99797.38
2022-10-19T17:16:50.670Z,99794.97
2022-10-19T17:19:20.601Z,99797.75
2022-10-19T17:21:49.605Z,99790.81
2022-10-19T17:24:22.021Z,99803.56
2022-10-19T17:26:52.050Z,99808.25
2022-10-19T17:29:21.249Z,99807.84
2022-10-19T17:31:50.471Z,99790.88
2022-10-19T17:34:20.700Z,99804.56
2022-10-19T17:36:49.489Z,99800.13
2022-10-19T17:39:22.129Z,99810.72
2022-10-19T17:41:53.609Z,99817.03
2022-10-19T17:44:29.130Z,99818.84
2022-10-19T17:46:57.589Z,99817.91
2022-10-19T17:49:27.709Z,99820.63
2022-10-19T17:51:56.189Z,99810.63
2022-10-19T17:54:24.784Z,99818.16
2022-10-19T17:56:53.390Z,99813.84
2022-10-19T17:59:30.196Z,99817.66
2022-10-19T18:02:04.429Z,99814.81
2022-10-19T18:07:04.533Z,99818.72
2022-10-19T18:09:33.029Z,99811.78
2022-10-19T18:12:04.978Z,99810.97
2022-10-19T18:14:34.979Z,99810.97
2022-10-19T18:17:03.491Z,99814.56
2022-10-19T18:19:33.444Z,99817.91
2022-10-19T18:22:02.109Z,99813.50
2022-10-19T18:24:30.787Z,99819.81
2022-10-19T18:26:59.264Z,99799.66
2022-10-19T18:29:28.260Z,99794.41
2022-10-19T18:31:56.892Z,99780.56
2022-10-19T18:34:26.911Z,99767.34
2022-10-19T18:36:56.940Z,99752.69
2022-10-19T18:39:25.428Z,99752.56
2022-10-19T18:41:55.047Z,99757.22
2022-10-19T18:44:27.047Z,99754.34
2022-10-19T18:46:57.392Z,99755.19
2022-10-19T18:49:26.349Z,99734.47
2022-10-19T18:51:55.868Z,99709.88
2022-10-19T18:54:28.243Z,99712.75
2022-10-19T18:56:59.559Z,99687.75
2022-10-19T19:01:56.946Z,99668.19
2022-10-19T19:04:25.424Z,99659.50
2022-10-19T19:06:54.309Z,99652.22
2022-10-19T19:09:22.924Z,99642.44
2022-10-19T19:11:54.539Z,99643.41
2022-10-19T19:14:23.134Z,99633.03
2022-10-19T19:16:51.649Z,99635.53
2022-10-19T19:19:21.178Z,99639.59
2022-10-19T19:22:09.460Z,99658.09
2022-10-19T19:24:38.299Z,99668.09
2022-10-19T19:27:08.529Z,99619.31
2022-10-19T19:29:37.309Z,99644.59
2022-10-19T19:32:07.154Z,99678.25
2022-10-19T19:34:36.311Z,99687.66
2022-10-19T19:37:22.011Z,99674.75
2022-10-19T19:39:59.510Z,99658.44
2022-10-19T19:42:30.307Z,99637.59
2022-10-19T19:45:20.049Z,99636.97
2022-10-19T19:48:32.766Z,99633.75
2022-10-19T19:51:57.704Z,99639.09
2022-10-19T19:54:31.780Z,99634.72
2022-10-19T19:57:00.399Z,99626.25
2022-10-19T19:59:32.394Z,99631.25
2022-10-19T20:02:05.662Z,99638.28
2022-10-19T20:04:56.790Z,99639.34
2022-10-19T20:07:27.328Z,99614.00
2022-10-19T20:09:55.861Z,99565.94
2022-10-19T20:12:30.409Z,99493.47
2022-10-19T20:15:08.610Z,99518.72
2022-10-19T20:17:37.833Z,99500.50
2022-10-19T20:20:08.180Z,99568.56
2022-10-19T20:22:37.351Z,99598.50
2022-10-19T20:25:06.829Z,99621.97
2022-10-19T20:27:36.545Z,99647.47
2022-10-19T20:30:08.029Z,99621.00
2022-10-19T20:32:37.035Z,99617.81
2022-10-19T20:35:11.759Z,99613.06
2022-10-19T20:37:40.490Z,99555.13
2022-10-19T20:40:11.140Z,99517.84
2022-10-19T20:42:41.054Z,99584.94
2022-10-19T20:45:13.505Z,99578.47
2022-10-19T20:47:44.809Z,99554.28
2022-10-19T20:50:13.614Z,99551.56
2022-10-19T20:52:42.161Z,99557.88
2022-10-19T20:55:11.510Z,99571.03
2022-10-19T20:57:43.879Z,99590.44
2022-10-19T21:00:16.663Z,99591.84
2022-10-19T21:02:46.344Z,99596.81
2022-10-19T21:05:17.564Z,99588.38
2022-10-19T21:07:46.184Z,99588.28
2022-10-19T21:10:15.396Z,99550.75
2022-10-19T21:12:44.345Z,99568.13
2022-10-19T21:15:15.260Z,99584.94
2022-10-19T21:17:43.720Z,99592.69
2022-10-19T21:20:14.955Z,99607.44
2022-10-19T21:22:43.807Z,99595.03
2022-10-19T21:25:12.684Z,99599.19
2022-10-19T21:27:41.274Z,99593.25
2022-10-19T21:30:10.683Z,99588.97
2022-10-19T21:32:40.655Z,99595.16
2022-10-19T21:35:09.789Z,99588.03
2022-10-19T21:37:40.749Z,99586.34
2022-10-19T21:40:10.987Z,99583.03
2022-10-19T21:42:39.539Z,99587.44
2022-10-19T21:45:29.364Z,99585.75
2022-10-19T21:47:59.420Z,99582.31
2022-10-19T21:50:28.940Z,99575.53
2022-10-19T21:52:57.468Z,99569.72
2022-10-19T21:55:26.470Z,99577.22
2022-10-19T21:57:54.914Z,99579.13
2022-10-19T22:00:23.389Z,99583.28
2022-10-19T22:02:51.922Z,99582.47
2022-10-19T22:05:21.899Z,99580.91
2022-10-19T22:07:50.404Z,99582.31
2022-10-19T22:10:19.112Z,99586.84
2022-10-19T22:12:47.681Z,99588.38
2022-10-19T22:15:16.885Z,99580.78
2022-10-19T22:17:45.470Z,99584.94
2022-10-19T22:20:13.980Z,99595.03
2022-10-19T22:22:54.140Z,99586.34
2022-10-19T22:25:23.509Z,99587.44
2022-10-19T22:27:55.844Z,99602.63
2022-10-19T22:30:24.402Z,99593.94
2022-10-19T22:32:54.146Z,99584.44
2022-10-19T22:35:22.730Z,99598.63
2022-10-19T22:37:53.340Z,99590.91
2022-10-19T22:40:21.799Z,99598.63
2022-10-19T22:43:40.029Z,99592.69
2022-10-19T22:46:45.525Z,99592.16
2022-10-19T22:49:33.320Z,99593.84
2022-10-19T22:52:20.049Z,99594.09
2022-10-19T22:54:53.221Z,99599.09
2022-10-19T22:57:22.289Z,99592.03
2022-10-19T22:59:53.605Z,99589.28
2022-10-19T23:02:24.905Z,99598.13
2022-10-19T23:04:56.209Z,99611.13
2022-10-19T23:07:24.752Z,99617.88
2022-10-19T23:09:54.762Z,99618.13
2022-10-19T23:12:23.849Z,99623.38
2022-10-19T23:14:52.809Z,99627.22
2022-10-19T23:17:21.604Z,99626.13
2022-10-19T23:19:50.879Z,99625.88
2022-10-19T23:22:22.071Z,99626.72
2022-10-19T23:24:51.170Z,99628.38
2022-10-19T23:27:21.899Z,99629.31
2022-10-19T23:29:50.531Z,99625.06
2022-10-19T23:32:19.330Z,99619.81
2022-10-19T23:34:48.551Z,99620.63
2022-10-19T23:37:17.501Z,99618.13
2022-10-19T23:39:46.129Z,99618.84
2022-10-19T23:42:19.669Z,99619.81
2022-10-19T23:44:50.185Z,99618.00
2022-10-19T23:47:18.820Z,99603.50
2022-10-19T23:49:47.819Z,99614.56
2022-10-19T23:52:16.869Z,99615.50
2022-10-19T23:54:45.919Z,99609.56
2022-10-19T23:57:14.699Z,99600.03
2022-10-19T23:59:43.340Z,99598.81
